sensor_id;sensor_type;location;lat;lon;timestamp;temperature;humidity
52731;DHT22;38624;53.242;6.974;2023-02-15T00:01:21;2.70;99.90
52731;DHT22;38624;53.242;6.974;2023-02-15T00:03:50;2.10;99.90
52731;DHT22;38624;53.242;6.974;2023-02-15T00:06:16;2.00;99.90
52731;DHT22;38624;53.242;6.974;2023-02-15T00:08:42;1.20;99.90
52731;DHT22;38624;53.242;6.974;2023-02-15T00:11:13;1.20;99.90
52731;DHT22;38624;53.242;6.974;2023-02-15T00:13:39;1.90;99.90
52731;DHT22;38624;53.242;6.974;2023-02-15T00:16:10;1.60;99.90
52731;DHT22;38624;53.242;6.974;2023-02-15T00:18:37;2.70;99.90
52731;DHT22;38624;53.242;6.974;2023-02-15T00:21:04;1.10;99.90
52731;DHT22;38624;53.242;6.974;2023-02-15T00:23:30;1.10;99.90
52731;DHT22;38624;53.242;6.974;2023-02-15T00:26:09;1.10;99.90
52731;DHT22;38624;53.242;6.974;2023-02-15T00:28:35;1.60;99.90
52731;DHT22;38624;53.242;6.974;2023-02-15T00:31:09;1.00;99.90
52731;DHT22;38624;53.242;6.974;2023-02-15T00:33:37;1.10;99.90
52731;DHT22;38624;53.242;6.974;2023-02-15T00:36:03;2.50;99.90
52731;DHT22;38624;53.242;6.974;2023-02-15T00:38:30;1.10;99.90
52731;DHT22;38624;53.242;6.974;2023-02-15T00:40:57;1.00;99.90
52731;DHT22;38624;53.242;6.974;2023-02-15T00:43:25;1.00;99.90
52731;DHT22;38624;53.242;6.974;2023-02-15T00:45:51;1.00;99.90
52731;DHT22;38624;53.242;6.974;2023-02-15T00:48:17;1.00;99.90
52731;DHT22;38624;53.242;6.974;2023-02-15T00:50:48;2.50;99.90
52731;DHT22;38624;53.242;6.974;2023-02-15T00:53:14;1.00;99.90
52731;DHT22;38624;53.242;6.974;2023-02-15T00:55:39;1.40;99.90
52731;DHT22;38624;53.242;6.974;2023-02-15T00:58:06;2.40;99.90
52731;DHT22;38624;53.242;6.974;2023-02-15T01:00:32;0.90;99.90
52731;DHT22;38624;53.242;6.974;2023-02-15T01:02:58;2.10;99.90
52731;DHT22;38624;53.242;6.974;2023-02-15T01:05:24;1.90;99.90
52731;DHT22;38624;53.242;6.974;2023-02-15T01:07:49;0.70;99.90
52731;DHT22;38624;53.242;6.974;2023-02-15T01:10:15;1.40;99.90
52731;DHT22;38624;53.242;6.974;2023-02-15T01:12:41;0.70;99.90
52731;DHT22;38624;53.242;6.974;2023-02-15T01:15:08;0.60;99.90
52731;DHT22;38624;53.242;6.974;2023-02-15T01:17:33;0.60;99.90
52731;DHT22;38624;53.242;6.974;2023-02-15T01:19:59;0.90;99.90
52731;DHT22;38624;53.242;6.974;2023-02-15T01:22:25;0.80;99.90
52731;DHT22;38624;53.242;6.974;2023-02-15T01:24:51;0.60;99.90
52731;DHT22;38624;53.242;6.974;2023-02-15T01:27:17;1.90;99.90
52731;DHT22;38624;53.242;6.974;2023-02-15T01:29:43;1.90;99.90
52731;DHT22;38624;53.242;6.974;2023-02-15T01:32:09;0.50;99.90
52731;DHT22;38624;53.242;6.974;2023-02-15T01:34:35;1.10;99.90
52731;DHT22;38624;53.242;6.974;2023-02-15T01:37:01;0.50;99.90
52731;DHT22;38624;53.242;6.974;2023-02-15T01:39:26;0.40;99.90
52731;DHT22;38624;53.242;6.974;2023-02-15T01:41:52;0.50;99.90
52731;DHT22;38624;53.242;6.974;2023-02-15T01:49:58;0.50;99.90
52731;DHT22;38624;53.242;6.974;2023-02-15T01:52:25;0.50;99.90
52731;DHT22;38624;53.242;6.974;2023-02-15T01:54:51;1.50;99.90
52731;DHT22;38624;53.242;6.974;2023-02-15T01:57:20;1.60;99.90
52731;DHT22;38624;53.242;6.974;2023-02-15T01:59:51;0.50;99.90
52731;DHT22;38624;53.242;6.974;2023-02-15T02:02:19;1.00;99.90
52731;DHT22;38624;53.242;6.974;2023-02-15T02:04:54;1.00;99.90
52731;DHT22;38624;53.242;6.974;2023-02-15T02:07:27;1.30;99.90
52731;DHT22;38624;53.242;6.974;2023-02-15T02:09:53;2.30;99.90
52731;DHT22;38624;53.242;6.974;2023-02-15T02:12:19;0.60;99.90
52731;DHT22;38624;53.242;6.974;2023-02-15T02:14:48;1.00;99.90
52731;DHT22;38624;53.242;6.974;2023-02-15T02:17:37;1.50;99.90
52731;DHT22;38624;53.242;6.974;2023-02-15T02:34:15;0.50;99.90
52731;DHT22;38624;53.242;6.974;2023-02-15T02:42:44;0.60;99.90
52731;DHT22;38624;53.242;6.974;2023-02-15T02:45:26;1.30;99.90
52731;DHT22;38624;53.242;6.974;2023-02-15T02:48:04;0.60;99.90
52731;DHT22;38624;53.242;6.974;2023-02-15T02:50:31;0.60;99.90
52731;DHT22;38624;53.242;6.974;2023-02-15T02:52:58;1.80;99.90
52731;DHT22;38624;53.242;6.974;2023-02-15T02:55:31;1.20;99.90
52731;DHT22;38624;53.242;6.974;2023-02-15T03:00:43;0.70;99.90
52731;DHT22;38624;53.242;6.974;2023-02-15T03:03:13;0.70;99.90
52731;DHT22;38624;53.242;6.974;2023-02-15T03:05:44;1.70;99.90
52731;DHT22;38624;53.242;6.974;2023-02-15T03:08:11;0.60;99.90
52731;DHT22;38624;53.242;6.974;2023-02-15T03:10:40;0.50;99.90
52731;DHT22;38624;53.242;6.974;2023-02-15T03:13:07;0.40;99.90
52731;DHT22;38624;53.242;6.974;2023-02-15T03:15:37;0.40;99.90
52731;DHT22;38624;53.242;6.974;2023-02-15T03:18:28;0.30;99.90
52731;DHT22;38624;53.242;6.974;2023-02-15T03:20:55;0.90;99.90
52731;DHT22;38624;53.242;6.974;2023-02-15T03:23:23;0.20;99.90
52731;DHT22;38624;53.242;6.974;2023-02-15T03:25:58;0.80;99.90
52731;DHT22;38624;53.242;6.974;2023-02-15T03:28:29;0.20;99.90
52731;DHT22;38624;53.242;6.974;2023-02-15T03:31:00;0.20;99.90
52731;DHT22;38624;53.242;6.974;2023-02-15T03:33:28;0.20;99.90
52731;DHT22;38624;53.242;6.974;2023-02-15T03:38:47;0.10;99.90
52731;DHT22;38624;53.242;6.974;2023-02-15T03:41:16;1.30;99.90
52731;DHT22;38624;53.242;6.974;2023-02-15T03:43:53;0.00;99.90
52731;DHT22;38624;53.242;6.974;2023-02-15T03:48:57;0.30;99.90
52731;DHT22;38624;53.242;6.974;2023-02-15T03:51:28;1.10;99.90
52731;DHT22;38624;53.242;6.974;2023-02-15T03:54:05;0.30;99.90
52731;DHT22;38624;53.242;6.974;2023-02-15T03:56:34;-0.20;99.90
52731;DHT22;38624;53.242;6.974;2023-02-15T03:59:01;1.30;99.90
52731;DHT22;38624;53.242;6.974;2023-02-15T04:01:54;0.40;99.90
52731;DHT22;38624;53.242;6.974;2023-02-15T04:04:36;-0.20;99.90
52731;DHT22;38624;53.242;6.974;2023-02-15T04:07:04;1.20;99.90
52731;DHT22;38624;53.242;6.974;2023-02-15T04:09:30;0.60;99.90
52731;DHT22;38624;53.242;6.974;2023-02-15T04:12:14;-0.30;99.90
52731;DHT22;38624;53.242;6.974;2023-02-15T04:14:40;1.10;99.90
52731;DHT22;38624;53.242;6.974;2023-02-15T04:17:24;-0.30;99.90
52731;DHT22;38624;53.242;6.974;2023-02-15T04:19:50;0.70;99.90
52731;DHT22;38624;53.242;6.974;2023-02-15T04:22:34;0.40;99.90
52731;DHT22;38624;53.242;6.974;2023-02-15T04:25:18;1.40;99.90
52731;DHT22;38624;53.242;6.974;2023-02-15T04:27:48;1.40;99.90
52731;DHT22;38624;53.242;6.974;2023-02-15T04:30:15;-0.30;99.90
52731;DHT22;38624;53.242;6.974;2023-02-15T04:32:41;-0.30;99.90
52731;DHT22;38624;53.242;6.974;2023-02-15T04:35:08;1.30;99.90
52731;DHT22;38624;53.242;6.974;2023-02-15T04:37:34;-0.30;99.90
52731;DHT22;38624;53.242;6.974;2023-02-15T04:40:01;0.40;99.90
52731;DHT22;38624;53.242;6.974;2023-02-15T04:42:28;-0.20;99.90
52731;DHT22;38624;53.242;6.974;2023-02-15T04:44:54;-0.30;99.90
52731;DHT22;38624;53.242;6.974;2023-02-15T04:47:19;0.40;99.90
52731;DHT22;38624;53.242;6.974;2023-02-15T04:49:45;-0.20;99.90
52731;DHT22;38624;53.242;6.974;2023-02-15T04:52:11;-0.30;99.90
52731;DHT22;38624;53.242;6.974;2023-02-15T04:54:36;0.20;99.90
52731;DHT22;38624;53.242;6.974;2023-02-15T04:57:04;-0.20;99.90
52731;DHT22;38624;53.242;6.974;2023-02-15T04:59:30;0.60;99.90
52731;DHT22;38624;53.242;6.974;2023-02-15T05:01:55;-0.20;99.90
52731;DHT22;38624;53.242;6.974;2023-02-15T05:04:21;0.00;99.90
52731;DHT22;38624;53.242;6.974;2023-02-15T05:06:47;-0.20;99.90
52731;DHT22;38624;53.242;6.974;2023-02-15T05:09:13;-0.20;99.90
52731;DHT22;38624;53.242;6.974;2023-02-15T05:11:39;-0.20;99.90
52731;DHT22;38624;53.242;6.974;2023-02-15T05:14:04;0.60;99.90
52731;DHT22;38624;53.242;6.974;2023-02-15T05:16:30;-0.20;99.90
52731;DHT22;38624;53.242;6.974;2023-02-15T05:18:55;-0.20;99.90
52731;DHT22;38624;53.242;6.974;2023-02-15T05:21:21;-0.30;99.90
52731;DHT22;38624;53.242;6.974;2023-02-15T05:23:47;-0.20;99.90
52731;DHT22;38624;53.242;6.974;2023-02-15T05:26:17;0.70;99.90
52731;DHT22;38624;53.242;6.974;2023-02-15T05:29:01;1.20;99.90
52731;DHT22;38624;53.242;6.974;2023-02-15T05:31:27;-0.30;99.90
52731;DHT22;38624;53.242;6.974;2023-02-15T05:33:52;-0.30;99.90
52731;DHT22;38624;53.242;6.974;2023-02-15T05:36:18;0.90;99.90
52731;DHT22;38624;53.242;6.974;2023-02-15T05:38:44;-0.20;99.90
52731;DHT22;38624;53.242;6.974;2023-02-15T05:41:10;0.10;99.90
52731;DHT22;38624;53.242;6.974;2023-02-15T05:43:37;0.60;99.90
52731;DHT22;38624;53.242;6.974;2023-02-15T05:46:03;1.00;99.90
52731;DHT22;38624;53.242;6.974;2023-02-15T05:48:29;0.50;99.90
52731;DHT22;38624;53.242;6.974;2023-02-15T05:53:29;0.00;99.90
52731;DHT22;38624;53.242;6.974;2023-02-15T05:55:55;0.70;99.90
52731;DHT22;38624;53.242;6.974;2023-02-15T05:58:25;0.50;99.90
52731;DHT22;38624;53.242;6.974;2023-02-15T06:00:52;0.20;99.90
52731;DHT22;38624;53.242;6.974;2023-02-15T06:03:17;-0.10;99.90
52731;DHT22;38624;53.242;6.974;2023-02-15T06:05:43;0.60;99.90
52731;DHT22;38624;53.242;6.974;2023-02-15T06:08:09;0.20;99.90
52731;DHT22;38624;53.242;6.974;2023-02-15T06:10:34;1.50;99.90
52731;DHT22;38624;53.242;6.974;2023-02-15T06:13:00;0.20;99.90
52731;DHT22;38624;53.242;6.974;2023-02-15T06:15:26;0.60;99.90
52731;DHT22;38624;53.242;6.974;2023-02-15T06:17:52;1.20;99.90
52731;DHT22;38624;53.242;6.974;2023-02-15T06:20:18;0.00;99.90
52731;DHT22;38624;53.242;6.974;2023-02-15T06:22:43;0.50;99.90
52731;DHT22;38624;53.242;6.974;2023-02-15T06:25:09;0.10;99.90
52731;DHT22;38624;53.242;6.974;2023-02-15T06:27:36;0.20;99.90
52731;DHT22;38624;53.242;6.974;2023-02-15T06:30:03;0.30;99.90
52731;DHT22;38624;53.242;6.974;2023-02-15T06:32:29;0.20;99.90
52731;DHT22;38624;53.242;6.974;2023-02-15T06:34:55;0.20;99.90
52731;DHT22;38624;53.242;6.974;2023-02-15T06:37:21;1.30;99.90
52731;DHT22;38624;53.242;6.974;2023-02-15T06:39:46;0.30;99.90
52731;DHT22;38624;53.242;6.974;2023-02-15T06:42:12;0.30;99.90
52731;DHT22;38624;53.242;6.974;2023-02-15T06:44:38;0.50;99.90
52731;DHT22;38624;53.242;6.974;2023-02-15T06:47:03;0.60;99.90
52731;DHT22;38624;53.242;6.974;2023-02-15T06:49:29;0.20;99.90
52731;DHT22;38624;53.242;6.974;2023-02-15T06:51:55;0.20;99.90
52731;DHT22;38624;53.242;6.974;2023-02-15T06:54:20;0.10;99.90
52731;DHT22;38624;53.242;6.974;2023-02-15T06:56:46;0.10;99.90
52731;DHT22;38624;53.242;6.974;2023-02-15T06:59:12;1.50;99.90
52731;DHT22;38624;53.242;6.974;2023-02-15T07:01:37;0.10;99.90
52731;DHT22;38624;53.242;6.974;2023-02-15T07:04:03;-0.20;99.90
52731;DHT22;38624;53.242;6.974;2023-02-15T07:06:32;-0.20;99.90
52731;DHT22;38624;53.242;6.974;2023-02-15T07:08:59;-0.10;99.90
52731;DHT22;38624;53.242;6.974;2023-02-15T07:11:25;1.50;99.90
52731;DHT22;38624;53.242;6.974;2023-02-15T07:14:09;0.30;99.90
52731;DHT22;38624;53.242;6.974;2023-02-15T07:16:35;-0.10;99.90
52731;DHT22;38624;53.242;6.974;2023-02-15T07:19:01;1.00;99.90
52731;DHT22;38624;53.242;6.974;2023-02-15T07:21:27;0.40;99.90
52731;DHT22;38624;53.242;6.974;2023-02-15T07:23:56;-0.30;99.90
52731;DHT22;38624;53.242;6.974;2023-02-15T07:26:22;-0.20;99.90
52731;DHT22;38624;53.242;6.974;2023-02-15T07:28:48;1.40;99.90
52731;DHT22;38624;53.242;6.974;2023-02-15T07:31:13;-0.20;99.90
52731;DHT22;38624;53.242;6.974;2023-02-15T07:33:39;-0.10;99.90
52731;DHT22;38624;53.242;6.974;2023-02-15T07:36:05;1.50;99.90
52731;DHT22;38624;53.242;6.974;2023-02-15T07:38:36;0.00;99.90
52731;DHT22;38624;53.242;6.974;2023-02-15T07:41:04;1.40;99.90
52731;DHT22;38624;53.242;6.974;2023-02-15T07:43:32;0.20;99.90
52731;DHT22;38624;53.242;6.974;2023-02-15T07:46:06;0.50;99.90
52731;DHT22;38624;53.242;6.974;2023-02-15T07:48:33;0.30;99.90
52731;DHT22;38624;53.242;6.974;2023-02-15T07:51:00;1.20;99.90
52731;DHT22;38624;53.242;6.974;2023-02-15T07:53:26;0.50;99.90
52731;DHT22;38624;53.242;6.974;2023-02-15T07:55:52;0.70;99.90
52731;DHT22;38624;53.242;6.974;2023-02-15T07:58:18;0.60;99.90
52731;DHT22;38624;53.242;6.974;2023-02-15T08:00:44;1.70;99.90
52731;DHT22;38624;53.242;6.974;2023-02-15T08:03:26;1.00;99.90
52731;DHT22;38624;53.242;6.974;2023-02-15T08:05:56;2.10;99.90
52731;DHT22;38624;53.242;6.974;2023-02-15T08:08:22;2.20;99.90
52731;DHT22;38624;53.242;6.974;2023-02-15T08:11:05;1.60;99.90
52731;DHT22;38624;53.242;6.974;2023-02-15T08:16:49;1.10;99.90
52731;DHT22;38624;53.242;6.974;2023-02-15T08:19:23;1.00;99.90
52731;DHT22;38624;53.242;6.974;2023-02-15T08:21:53;1.00;99.90
52731;DHT22;38624;53.242;6.974;2023-02-15T08:24:21;1.10;99.90
52731;DHT22;38624;53.242;6.974;2023-02-15T08:26:48;1.60;99.90
52731;DHT22;38624;53.242;6.974;2023-02-15T08:29:15;1.20;99.90
52731;DHT22;38624;53.242;6.974;2023-02-15T08:31:41;1.30;99.90
52731;DHT22;38624;53.242;6.974;2023-02-15T08:34:09;1.30;99.90
52731;DHT22;38624;53.242;6.974;2023-02-15T08:36:35;1.40;99.90
52731;DHT22;38624;53.242;6.974;2023-02-15T08:39:04;1.80;99.90
52731;DHT22;38624;53.242;6.974;2023-02-15T08:41:32;1.80;99.90
52731;DHT22;38624;53.242;6.974;2023-02-15T08:44:00;1.60;99.90
52731;DHT22;38624;53.242;6.974;2023-02-15T08:46:28;1.60;99.90
52731;DHT22;38624;53.242;6.974;2023-02-15T08:48:54;1.70;99.90
52731;DHT22;38624;53.242;6.974;2023-02-15T08:51:22;2.10;99.90
52731;DHT22;38624;53.242;6.974;2023-02-15T08:53:51;1.90;99.90
52731;DHT22;38624;53.242;6.974;2023-02-15T08:56:18;2.00;99.90
52731;DHT22;38624;53.242;6.974;2023-02-15T08:58:45;3.60;99.90
52731;DHT22;38624;53.242;6.974;2023-02-15T09:01:19;2.10;99.90
52731;DHT22;38624;53.242;6.974;2023-02-15T09:03:49;2.20;99.90
52731;DHT22;38624;53.242;6.974;2023-02-15T09:06:19;2.30;99.90
52731;DHT22;38624;53.242;6.974;2023-02-15T09:08:45;2.30;99.90
52731;DHT22;38624;53.242;6.974;2023-02-15T09:11:19;2.40;99.90
52731;DHT22;38624;53.242;6.974;2023-02-15T09:13:56;3.00;99.90
52731;DHT22;38624;53.242;6.974;2023-02-15T09:16:24;2.60;99.90
52731;DHT22;38624;53.242;6.974;2023-02-15T09:18:51;3.60;99.90
52731;DHT22;38624;53.242;6.974;2023-02-15T09:21:20;2.90;99.90
52731;DHT22;38624;53.242;6.974;2023-02-15T09:23:48;3.50;99.90
52731;DHT22;38624;53.242;6.974;2023-02-15T09:26:18;3.10;99.90
52731;DHT22;38624;53.242;6.974;2023-02-15T09:28:45;3.20;99.90
52731;DHT22;38624;53.242;6.974;2023-02-15T09:31:13;3.40;99.90
52731;DHT22;38624;53.242;6.974;2023-02-15T09:33:41;3.40;99.90
52731;DHT22;38624;53.242;6.974;2023-02-15T09:36:16;3.50;99.90
52731;DHT22;38624;53.242;6.974;2023-02-15T09:38:42;3.60;99.90
52731;DHT22;38624;53.242;6.974;2023-02-15T09:50:20;3.80;99.90
52731;DHT22;38624;53.242;6.974;2023-02-15T10:01:13;4.30;99.90
52731;DHT22;38624;53.242;6.974;2023-02-15T10:12:03;4.80;99.90
52731;DHT22;38624;53.242;6.974;2023-02-15T10:17:53;5.00;99.90
52731;DHT22;38624;53.242;6.974;2023-02-15T10:26:19;5.30;99.90
52731;DHT22;38624;53.242;6.974;2023-02-15T10:28:50;5.40;99.90
52731;DHT22;38624;53.242;6.974;2023-02-15T10:31:38;5.50;99.90
52731;DHT22;38624;53.242;6.974;2023-02-15T10:43:08;6.70;99.90
52731;DHT22;38624;53.242;6.974;2023-02-15T10:46:07;7.10;99.90
52731;DHT22;38624;53.242;6.974;2023-02-15T11:08:15;8.20;99.90
52731;DHT22;38624;53.242;6.974;2023-02-15T11:10:52;8.50;99.90
52731;DHT22;38624;53.242;6.974;2023-02-15T11:13:22;8.50;99.90
52731;DHT22;38624;53.242;6.974;2023-02-15T11:16:16;9.10;99.90
52731;DHT22;38624;53.242;6.974;2023-02-15T11:18:50;9.50;99.90
52731;DHT22;38624;53.242;6.974;2023-02-15T11:23:44;9.80;99.90
52731;DHT22;38624;53.242;6.974;2023-02-15T11:26:18;9.60;99.90
52731;DHT22;38624;53.242;6.974;2023-02-15T11:35:18;10.00;99.90
52731;DHT22;38624;53.242;6.974;2023-02-15T11:38:14;10.60;99.90
52731;DHT22;38624;53.242;6.974;2023-02-15T11:40:48;10.60;99.90
52731;DHT22;38624;53.242;6.974;2023-02-15T11:43:31;10.50;99.90
52731;DHT22;38624;53.242;6.974;2023-02-15T11:45:59;10.40;99.90
52731;DHT22;38624;53.242;6.974;2023-02-15T11:48:25;10.60;99.90
52731;DHT22;38624;53.242;6.974;2023-02-15T11:50:50;10.70;99.90
52731;DHT22;38624;53.242;6.974;2023-02-15T11:53:18;10.70;99.90
52731;DHT22;38624;53.242;6.974;2023-02-15T11:55:48;10.80;99.90
52731;DHT22;38624;53.242;6.974;2023-02-15T11:58:28;9.90;99.90
52731;DHT22;38624;53.242;6.974;2023-02-15T12:06:24;10.90;99.90
52731;DHT22;38624;53.242;6.974;2023-02-15T12:11:38;11.10;99.90
52731;DHT22;38624;53.242;6.974;2023-02-15T12:14:09;11.30;99.90
52731;DHT22;38624;53.242;6.974;2023-02-15T12:16:50;11.50;99.90
52731;DHT22;38624;53.242;6.974;2023-02-15T12:21:51;12.40;99.90
52731;DHT22;38624;53.242;6.974;2023-02-15T12:24:23;13.50;99.90
52731;DHT22;38624;53.242;6.974;2023-02-15T12:29:39;15.40;99.90
52731;DHT22;38624;53.242;6.974;2023-02-15T12:32:05;16.50;99.90
52731;DHT22;38624;53.242;6.974;2023-02-15T12:34:38;17.20;99.90
52731;DHT22;38624;53.242;6.974;2023-02-15T12:37:22;17.70;99.90
52731;DHT22;38624;53.242;6.974;2023-02-15T12:39:58;17.40;99.90
52731;DHT22;38624;53.242;6.974;2023-02-15T12:42:25;16.70;99.90
52731;DHT22;38624;53.242;6.974;2023-02-15T12:45:00;16.10;99.90
52731;DHT22;38624;53.242;6.974;2023-02-15T12:47:30;16.10;99.90
52731;DHT22;38624;53.242;6.974;2023-02-15T12:52:43;15.20;99.90
52731;DHT22;38624;53.242;6.974;2023-02-15T12:57:44;15.00;99.90
52731;DHT22;38624;53.242;6.974;2023-02-15T13:02:50;14.90;99.90
52731;DHT22;38624;53.242;6.974;2023-02-15T13:05:31;14.70;99.90
52731;DHT22;38624;53.242;6.974;2023-02-15T13:08:21;14.60;99.90
52731;DHT22;38624;53.242;6.974;2023-02-15T13:13:23;14.90;99.90
52731;DHT22;38624;53.242;6.974;2023-02-15T13:15:56;15.00;99.90
52731;DHT22;38624;53.242;6.974;2023-02-15T13:18:32;15.30;99.90
52731;DHT22;38624;53.242;6.974;2023-02-15T13:21:15;15.40;99.90
52731;DHT22;38624;53.242;6.974;2023-02-15T13:23:46;15.50;99.90
52731;DHT22;38624;53.242;6.974;2023-02-15T13:26:20;15.60;99.90
52731;DHT22;38624;53.242;6.974;2023-02-15T13:28:49;15.60;99.90
52731;DHT22;38624;53.242;6.974;2023-02-15T13:31:22;15.20;99.90
52731;DHT22;38624;53.242;6.974;2023-02-15T13:33:52;14.80;99.90
52731;DHT22;38624;53.242;6.974;2023-02-15T13:41:34;13.80;99.90
52731;DHT22;38624;53.242;6.974;2023-02-15T13:44:12;13.50;99.90
52731;DHT22;38624;53.242;6.974;2023-02-15T13:52:21;12.70;99.90
52731;DHT22;38624;53.242;6.974;2023-02-15T13:58:23;12.80;99.90
52731;DHT22;38624;53.242;6.974;2023-02-15T14:09:07;12.50;99.90
52731;DHT22;38624;53.242;6.974;2023-02-15T14:29:20;11.90;99.90
52731;DHT22;38624;53.242;6.974;2023-02-15T14:31:47;11.90;99.90
52731;DHT22;38624;53.242;6.974;2023-02-15T14:34:27;11.80;99.90
52731;DHT22;38624;53.242;6.974;2023-02-15T14:36:55;11.80;99.90
52731;DHT22;38624;53.242;6.974;2023-02-15T14:42:42;11.60;99.90
52731;DHT22;38624;53.242;6.974;2023-02-15T14:45:21;11.60;99.90
52731;DHT22;38624;53.242;6.974;2023-02-15T14:48:09;11.50;99.90
52731;DHT22;38624;53.242;6.974;2023-02-15T14:50:46;11.40;99.90
52731;DHT22;38624;53.242;6.974;2023-02-15T14:58:56;11.10;99.90
52731;DHT22;38624;53.242;6.974;2023-02-15T15:01:31;11.10;99.90
52731;DHT22;38624;53.242;6.974;2023-02-15T15:04:12;10.90;99.90
52731;DHT22;38624;53.242;6.974;2023-02-15T15:06:42;10.80;99.90
52731;DHT22;38624;53.242;6.974;2023-02-15T15:09:28;10.70;99.90
52731;DHT22;38624;53.242;6.974;2023-02-15T15:12:12;10.60;99.90
52731;DHT22;38624;53.242;6.974;2023-02-15T15:14:42;10.50;99.90
52731;DHT22;38624;53.242;6.974;2023-02-15T15:17:11;10.40;99.90
52731;DHT22;38624;53.242;6.974;2023-02-15T15:22:20;10.20;99.90
52731;DHT22;38624;53.242;6.974;2023-02-15T15:25:10;10.20;99.90
52731;DHT22;38624;53.242;6.974;2023-02-15T15:35:36;9.80;99.90
52731;DHT22;38624;53.242;6.974;2023-02-15T15:41:08;9.50;99.90
52731;DHT22;38624;53.242;6.974;2023-02-15T15:48:51;9.20;99.90
52731;DHT22;38624;53.242;6.974;2023-02-15T15:51:31;9.10;99.90
52731;DHT22;38624;53.242;6.974;2023-02-15T15:53:59;9.00;99.90
52731;DHT22;38624;53.242;6.974;2023-02-15T15:56:28;8.90;99.90
52731;DHT22;38624;53.242;6.974;2023-02-15T15:58:59;9.00;99.90
52731;DHT22;38624;53.242;6.974;2023-02-15T16:01:34;8.70;99.90
52731;DHT22;38624;53.242;6.974;2023-02-15T16:04:01;8.70;99.90
52731;DHT22;38624;53.242;6.974;2023-02-15T16:06:35;8.50;99.90
52731;DHT22;38624;53.242;6.974;2023-02-15T16:09:16;8.40;99.90
52731;DHT22;38624;53.242;6.974;2023-02-15T16:11:43;8.40;99.90
52731;DHT22;38624;53.242;6.974;2023-02-15T16:14:34;8.30;99.90
52731;DHT22;38624;53.242;6.974;2023-02-15T16:17:04;8.20;99.90
52731;DHT22;38624;53.242;6.974;2023-02-15T16:19:35;8.10;99.90
52731;DHT22;38624;53.242;6.974;2023-02-15T16:22:03;8.00;99.90
52731;DHT22;38624;53.242;6.974;2023-02-15T16:24:48;7.90;99.90
52731;DHT22;38624;53.242;6.974;2023-02-15T16:29:53;7.70;99.90
52731;DHT22;38624;53.242;6.974;2023-02-15T16:37:23;7.60;99.90
52731;DHT22;38624;53.242;6.974;2023-02-15T16:39:52;7.50;99.90
52731;DHT22;38624;53.242;6.974;2023-02-15T16:42:18;7.50;99.90
52731;DHT22;38624;53.242;6.974;2023-02-15T16:44:46;7.40;99.90
52731;DHT22;38624;53.242;6.974;2023-02-15T16:47:25;7.40;99.90
52731;DHT22;38624;53.242;6.974;2023-02-15T16:49:53;7.30;99.90
52731;DHT22;38624;53.242;6.974;2023-02-15T16:52:23;7.20;99.90
52731;DHT22;38624;53.242;6.974;2023-02-15T16:55:00;7.10;99.90
52731;DHT22;38624;53.242;6.974;2023-02-15T16:57:30;7.10;99.90
52731;DHT22;38624;53.242;6.974;2023-02-15T17:00:04;7.10;99.90
52731;DHT22;38624;53.242;6.974;2023-02-15T17:02:33;7.00;99.90
52731;DHT22;38624;53.242;6.974;2023-02-15T17:07:42;6.80;99.90
52731;DHT22;38624;53.242;6.974;2023-02-15T17:10:32;6.70;99.90
52731;DHT22;38624;53.242;6.974;2023-02-15T17:13:15;6.70;99.90
52731;DHT22;38624;53.242;6.974;2023-02-15T17:15:43;6.60;99.90
52731;DHT22;38624;53.242;6.974;2023-02-15T17:18:21;6.50;99.90
52731;DHT22;38624;53.242;6.974;2023-02-15T17:20:49;6.50;99.90
52731;DHT22;38624;53.242;6.974;2023-02-15T17:23:27;6.60;99.90
52731;DHT22;38624;53.242;6.974;2023-02-15T17:25:55;6.60;99.90
52731;DHT22;38624;53.242;6.974;2023-02-15T17:28:24;6.60;99.90
52731;DHT22;38624;53.242;6.974;2023-02-15T17:30:52;6.50;99.90
52731;DHT22;38624;53.242;6.974;2023-02-15T17:38:31;6.30;99.90
52731;DHT22;38624;53.242;6.974;2023-02-15T17:40:56;6.20;99.90
52731;DHT22;38624;53.242;6.974;2023-02-15T17:43:24;6.20;99.90
52731;DHT22;38624;53.242;6.974;2023-02-15T17:45:51;6.20;99.90
52731;DHT22;38624;53.242;6.974;2023-02-15T17:48:31;6.20;99.90
52731;DHT22;38624;53.242;6.974;2023-02-15T17:50:59;6.20;99.90
52731;DHT22;38624;53.242;6.974;2023-02-15T17:53:25;6.20;99.90
52731;DHT22;38624;53.242;6.974;2023-02-15T17:55:51;6.20;99.90
52731;DHT22;38624;53.242;6.974;2023-02-15T17:58:18;6.10;99.90
52731;DHT22;38624;53.242;6.974;2023-02-15T18:00:53;6.10;99.90
52731;DHT22;38624;53.242;6.974;2023-02-15T18:03:47;6.00;99.90
52731;DHT22;38624;53.242;6.974;2023-02-15T18:06:32;6.00;99.90
52731;DHT22;38624;53.242;6.974;2023-02-15T18:09:19;5.90;99.90
52731;DHT22;38624;53.242;6.974;2023-02-15T18:14:40;5.80;99.90
52731;DHT22;38624;53.242;6.974;2023-02-15T18:17:10;5.90;99.90
52731;DHT22;38624;53.242;6.974;2023-02-15T18:19:36;5.90;99.90
52731;DHT22;38624;53.242;6.974;2023-02-15T18:22:12;5.90;99.90
52731;DHT22;38624;53.242;6.974;2023-02-15T18:24:38;5.80;99.90
52731;DHT22;38624;53.242;6.974;2023-02-15T18:27:04;5.90;99.90
52731;DHT22;38624;53.242;6.974;2023-02-15T18:29:30;5.90;99.90
52731;DHT22;38624;53.242;6.974;2023-02-15T18:31:57;5.90;99.90
52731;DHT22;38624;53.242;6.974;2023-02-15T18:34:27;5.90;99.90
52731;DHT22;38624;53.242;6.974;2023-02-15T18:36:55;5.80;99.90
52731;DHT22;38624;53.242;6.974;2023-02-15T18:39:26;5.90;99.90
52731;DHT22;38624;53.242;6.974;2023-02-15T18:41:55;5.90;99.90
52731;DHT22;38624;53.242;6.974;2023-02-15T18:44:20;6.00;99.90
52731;DHT22;38624;53.242;6.974;2023-02-15T18:46:46;6.00;99.90
52731;DHT22;38624;53.242;6.974;2023-02-15T18:49:12;6.00;99.90
52731;DHT22;38624;53.242;6.974;2023-02-15T18:51:37;5.90;99.90
52731;DHT22;38624;53.242;6.974;2023-02-15T18:54:19;5.90;99.90
52731;DHT22;38624;53.242;6.974;2023-02-15T18:56:54;5.80;99.90
52731;DHT22;38624;53.242;6.974;2023-02-15T18:59:21;5.80;99.90
52731;DHT22;38624;53.242;6.974;2023-02-15T19:01:47;5.80;99.90
52731;DHT22;38624;53.242;6.974;2023-02-15T19:04:12;5.70;99.90
52731;DHT22;38624;53.242;6.974;2023-02-15T19:06:43;5.80;99.90
52731;DHT22;38624;53.242;6.974;2023-02-15T19:09:20;5.70;99.90
52731;DHT22;38624;53.242;6.974;2023-02-15T19:11:52;5.70;99.90
52731;DHT22;38624;53.242;6.974;2023-02-15T19:14:30;5.70;99.90
52731;DHT22;38624;53.242;6.974;2023-02-15T19:16:57;5.70;99.90
52731;DHT22;38624;53.242;6.974;2023-02-15T19:19:23;5.80;99.90
52731;DHT22;38624;53.242;6.974;2023-02-15T19:21:49;5.60;99.90
52731;DHT22;38624;53.242;6.974;2023-02-15T19:24:20;5.60;99.90
52731;DHT22;38624;53.242;6.974;2023-02-15T19:26:47;5.70;99.90
52731;DHT22;38624;53.242;6.974;2023-02-15T19:29:14;5.70;99.90
52731;DHT22;38624;53.242;6.974;2023-02-15T19:31:41;5.90;99.90
52731;DHT22;38624;53.242;6.974;2023-02-15T19:34:14;5.80;99.90
52731;DHT22;38624;53.242;6.974;2023-02-15T19:36:42;5.80;99.90
52731;DHT22;38624;53.242;6.974;2023-02-15T19:39:20;5.80;99.90
52731;DHT22;38624;53.242;6.974;2023-02-15T19:41:47;5.80;99.90
52731;DHT22;38624;53.242;6.974;2023-02-15T19:44:12;5.80;99.90